Terminal Aerodrome Forecast
Issued by NWS

Home | Current Version | Previous Version | Text Only | Print | Product List | Glossary On
Versions: 1 2 3 4 5 6 7 8 9 10 11 12 13 14 15 16 17 18 19 20 21
000
FTUS43 KDLH 211140
TAFBRD
TAF
KBRD 211140Z 2112/2212 02007KT 4SM -DZ BR OVC005
     FM211500 35007KT 5SM -SHRA BR OVC007
     FM211900 31010G16KT P6SM VCSH SCT007 OVC011
     FM220000 29009KT P6SM VCSH OVC013
     FM220600 29009KT P6SM SCT015 OVC022=

USA.gov is the U.S. government's official web portal to all federal, state and local government web resources and services.